createdAt,value
2023-04-28T00:00:38.032Z,50.02
2023-04-28T00:03:05.284Z,49.83
2023-04-28T00:05:32.582Z,49.90
2023-04-28T00:07:59.678Z,49.53
2023-04-28T00:10:26.726Z,49.24
2023-04-28T00:12:53.876Z,49.48
2023-04-28T00:15:21.357Z,49.65
2023-04-28T00:17:48.825Z,49.95
2023-04-28T00:20:16.255Z,49.82
2023-04-28T00:22:43.396Z,49.66
2023-04-28T00:25:10.451Z,49.39
2023-04-28T00:27:37.593Z,49.49
2023-04-28T00:30:05.569Z,49.55
2023-04-28T00:32:32.851Z,49.73
2023-04-28T00:34:59.967Z,49.77
2023-04-28T00:37:27.024Z,49.88
2023-04-28T00:39:57.228Z,50.16
2023-04-28T00:42:24.690Z,50.08
2023-04-28T00:44:51.835Z,50.16
2023-04-28T00:47:19.803Z,49.74
2023-04-28T00:49:47.874Z,50.03
2023-04-28T00:52:14.856Z,50.32
2023-04-28T00:54:43.093Z,50.09
2023-04-28T00:57:10.654Z,50.46
2023-04-28T00:59:38.418Z,50.03
2023-04-28T01:02:06.848Z,49.80
2023-04-28T01:04:34.281Z,49.69
2023-04-28T01:07:02.015Z,49.80
2023-04-28T01:09:29.282Z,49.92
2023-04-28T01:11:58.674Z,50.03
2023-04-28T01:14:40.172Z,50.40
2023-04-28T01:17:07.921Z,50.01
2023-04-28T01:19:35.100Z,50.37
2023-04-28T01:22:02.523Z,50.28
2023-04-28T01:24:29.677Z,50.24
2023-04-28T01:26:58.665Z,50.11
2023-04-28T01:29:25.917Z,49.99
2023-04-28T01:31:53.455Z,49.63
2023-04-28T01:34:20.834Z,50.29
2023-04-28T01:36:48.100Z,50.59
2023-04-28T01:39:15.441Z,50.30
2023-04-28T01:41:42.596Z,50.61
2023-04-28T01:44:09.670Z,50.32
2023-04-28T01:46:37.189Z,50.13
2023-04-28T01:49:04.442Z,50.19
2023-04-28T01:51:31.592Z,50.70
2023-04-28T01:53:58.850Z,50.44
2023-04-28T01:56:26.198Z,50.52
2023-04-28T01:58:54.809Z,50.50
2023-04-28T02:01:21.994Z,50.64
2023-04-28T02:03:49.644Z,50.94
2023-04-28T02:06:17.053Z,50.72
2023-04-28T02:08:44.098Z,50.59
2023-04-28T02:11:12.991Z,50.78
2023-04-28T02:13:40.039Z,50.66
2023-04-28T02:16:07.852Z,50.73
2023-04-28T02:18:36.591Z,50.71
2023-04-28T02:21:13.660Z,50.78
2023-04-28T02:23:41.021Z,50.51
2023-04-28T02:26:08.470Z,50.44
2023-04-28T02:28:36.442Z,50.55
2023-04-28T02:31:07.207Z,50.39
2023-04-28T02:33:34.330Z,50.73
2023-04-28T02:36:02.761Z,50.59
2023-04-28T02:38:30.275Z,50.44
2023-04-28T02:41:01.316Z,50.58
2023-04-28T02:43:28.966Z,50.40
2023-04-28T02:45:56.112Z,50.71
2023-04-28T02:48:24.904Z,51.15
2023-04-28T02:50:53.405Z,51.51
2023-04-28T02:53:21.111Z,51.30
2023-04-28T02:55:48.827Z,51.47
2023-04-28T02:58:18.340Z,51.29
2023-04-28T03:00:46.509Z,51.54
2023-04-28T03:03:14.154Z,51.58
2023-04-28T03:05:41.826Z,51.38
2023-04-28T03:08:08.964Z,51.63
2023-04-28T03:10:36.011Z,51.27
2023-04-28T03:13:03.379Z,51.36
2023-04-28T03:15:30.670Z,51.44
2023-04-28T03:17:58.161Z,51.49
2023-04-28T03:20:25.418Z,51.51
2023-04-28T03:22:52.565Z,51.61
2023-04-28T03:25:20.027Z,51.64
2023-04-28T03:27:51.499Z,51.70
2023-04-28T03:30:18.625Z,51.76
2023-04-28T03:32:46.581Z,51.89
2023-04-28T03:35:14.152Z,51.71
2023-04-28T03:37:41.631Z,51.77
2023-04-28T03:40:09.390Z,51.79
2023-04-28T03:42:55.060Z,51.86
2023-04-28T03:45:32.306Z,52.10
2023-04-28T03:47:59.644Z,52.32
2023-04-28T03:50:27.107Z,52.41
2023-04-28T03:52:54.616Z,52.35
2023-04-28T03:55:21.979Z,52.32
2023-04-28T03:57:49.111Z,52.44
2023-04-28T04:00:18.532Z,51.93
2023-04-28T04:02:46.306Z,52.06
2023-04-28T04:05:13.785Z,52.01
2023-04-28T04:07:41.504Z,52.14
2023-04-28T04:10:09.464Z,52.46
2023-04-28T04:12:37.342Z,53.02
2023-04-28T04:15:05.004Z,52.98
2023-04-28T04:17:32.758Z,52.81
2023-04-28T04:20:00.015Z,52.43
2023-04-28T04:22:27.267Z,52.65
2023-04-28T04:24:54.323Z,53.14
2023-04-28T04:27:22.425Z,53.14
2023-04-28T04:29:49.429Z,53.21
2023-04-28T04:32:16.683Z,52.86
2023-04-28T04:34:43.932Z,52.51
2023-04-28T04:37:11.439Z,52.68
2023-04-28T04:39:44.168Z,52.78
2023-04-28T04:42:24.238Z,52.70
2023-04-28T04:45:11.545Z,52.98
2023-04-28T04:47:38.923Z,53.02
2023-04-28T04:50:07.285Z,53.02
2023-04-28T04:52:34.321Z,53.03
2023-04-28T04:55:01.780Z,52.72
2023-04-28T04:57:28.822Z,52.18
2023-04-28T05:00:19.696Z,52.28
2023-04-28T05:02:47.030Z,52.29
2023-04-28T05:05:21.236Z,52.55
2023-04-28T05:08:13.260Z,52.46
2023-04-28T05:10:40.897Z,52.45
2023-04-28T05:13:09.206Z,52.29
2023-04-28T05:15:36.328Z,52.27
2023-04-28T05:18:26.738Z,52.38
2023-04-28T05:20:53.967Z,52.35
2023-04-28T05:23:21.114Z,51.93
2023-04-28T05:25:48.315Z,52.11
2023-04-28T05:28:15.720Z,51.82
2023-04-28T05:30:45.222Z,51.68
2023-04-28T05:33:13.022Z,51.63
2023-04-28T05:35:40.754Z,51.94
2023-04-28T05:38:08.416Z,51.91
2023-04-28T05:40:35.566Z,51.65
2023-04-28T05:43:02.711Z,51.95
2023-04-28T05:45:30.225Z,51.76
2023-04-28T05:47:57.869Z,51.85
2023-04-28T05:50:24.986Z,51.78
2023-04-28T05:52:53.264Z,51.60
2023-04-28T05:55:20.921Z,51.04
2023-04-28T05:57:53.006Z,50.63
2023-04-28T06:00:22.034Z,50.85
2023-04-28T06:02:49.569Z,51.15
2023-04-28T06:05:17.005Z,50.78
2023-04-28T06:07:44.959Z,51.07
2023-04-28T06:10:12.341Z,50.80
2023-04-28T06:12:39.771Z,50.49
2023-04-28T06:15:07.438Z,50.55
2023-04-28T06:17:34.828Z,50.37
2023-04-28T06:20:02.034Z,50.24
2023-04-28T06:22:29.097Z,50.83
2023-04-28T06:24:56.143Z,50.51
2023-04-28T06:27:33.033Z,50.72
2023-04-28T06:30:00.081Z,50.68
2023-04-28T06:32:27.236Z,50.17
2023-04-28T06:34:54.805Z,50.11
2023-04-28T06:37:23.864Z,50.06
2023-04-28T06:39:50.898Z,50.13
2023-04-28T06:42:19.482Z,50.81
2023-04-28T06:44:53.802Z,50.58
2023-04-28T06:47:21.261Z,50.32
2023-04-28T06:49:50.456Z,50.27
2023-04-28T06:52:17.529Z,49.49
2023-04-28T06:54:44.501Z,49.44
2023-04-28T06:57:11.694Z,49.50
2023-04-28T06:59:38.714Z,49.19
2023-04-28T07:02:06.271Z,49.13
2023-04-28T07:04:33.380Z,48.70
2023-04-28T07:07:00.402Z,49.38
2023-04-28T07:09:27.478Z,49.04
2023-04-28T07:11:55.833Z,48.95
2023-04-28T07:14:23.382Z,48.54
2023-04-28T07:16:50.826Z,49.06
2023-04-28T07:19:18.091Z,48.83
2023-04-28T07:21:46.260Z,48.65
2023-04-28T07:24:13.312Z,48.67
2023-04-28T07:26:40.372Z,48.96
2023-04-28T07:29:09.248Z,48.66
2023-04-28T07:31:36.334Z,48.72
2023-04-28T07:34:03.452Z,48.80
2023-04-28T07:36:31.415Z,48.59
2023-04-28T07:39:00.302Z,48.19
2023-04-28T07:41:28.168Z,48.55
2023-04-28T07:43:55.216Z,48.48
2023-04-28T07:46:23.123Z,47.84
2023-04-28T07:48:50.231Z,48.33
2023-04-28T07:51:17.276Z,47.74
2023-04-28T07:53:44.325Z,48.06
2023-04-28T07:56:12.397Z,48.32
2023-04-28T07:58:39.440Z,48.57
2023-04-28T08:01:06.488Z,47.86
2023-04-28T08:03:33.871Z,47.43
2023-04-28T08:06:01.475Z,47.56
2023-04-28T08:08:28.669Z,48.42
2023-04-28T08:10:55.806Z,48.55
2023-04-28T08:13:23.154Z,48.39
2023-04-28T08:15:50.271Z,48.20
2023-04-28T08:18:17.478Z,47.97
2023-04-28T08:20:44.533Z,47.64
2023-04-28T08:23:11.963Z,47.00
2023-04-28T08:25:39.099Z,46.66
2023-04-28T08:28:06.716Z,46.47
2023-04-28T08:30:34.426Z,45.93
2023-04-28T08:33:01.526Z,46.30
2023-04-28T08:35:28.734Z,46.22
2023-04-28T08:37:55.983Z,46.35
2023-04-28T08:40:24.557Z,45.99
2023-04-28T08:42:51.717Z,45.66
2023-04-28T08:45:18.753Z,45.35
2023-04-28T08:47:46.548Z,45.44
2023-04-28T08:50:14.185Z,45.19
2023-04-28T08:52:42.776Z,44.91
2023-04-28T08:55:11.539Z,44.83
2023-04-28T08:57:50.063Z,44.97
2023-04-28T09:00:17.529Z,45.28
2023-04-28T09:02:44.736Z,45.06
2023-04-28T09:05:13.178Z,44.84
2023-04-28T09:07:41.098Z,44.93
2023-04-28T09:10:18.692Z,45.04
2023-04-28T09:12:46.916Z,45.35
2023-04-28T09:15:35.032Z,45.55
2023-04-28T09:18:06.703Z,46.04
2023-04-28T09:20:35.211Z,46.88
2023-04-28T09:23:22.751Z,46.22
2023-04-28T09:25:57.436Z,45.93
2023-04-28T09:28:24.579Z,45.55
2023-04-28T09:30:51.724Z,45.72
2023-04-28T09:33:19.310Z,45.84
2023-04-28T09:35:47.970Z,46.09
2023-04-28T09:38:18.389Z,45.51
2023-04-28T09:40:52.817Z,45.22
2023-04-28T09:43:24.382Z,45.09
2023-04-28T09:45:51.666Z,44.96
2023-04-28T09:48:19.383Z,45.16
2023-04-28T09:50:46.648Z,44.66
2023-04-28T09:53:13.892Z,44.56
2023-04-28T09:55:42.487Z,44.42
2023-04-28T09:58:09.621Z,44.99
2023-04-28T10:00:36.768Z,44.94
2023-04-28T10:03:04.058Z,44.53
2023-04-28T10:05:32.022Z,44.59
2023-04-28T10:08:01.703Z,44.01
2023-04-28T10:10:29.367Z,44.38
2023-04-28T10:12:56.505Z,44.15
2023-04-28T10:15:23.862Z,44.16
2023-04-28T10:17:51.168Z,44.54
2023-04-28T10:20:19.098Z,45.11
2023-04-28T10:23:01.009Z,45.73
2023-04-28T10:25:30.391Z,46.04
2023-04-28T10:27:58.076Z,45.64
2023-04-28T10:30:28.847Z,45.04
2023-04-28T10:33:12.260Z,44.87
2023-04-28T10:35:41.004Z,45.48
2023-04-28T10:38:08.764Z,44.98
2023-04-28T10:40:36.850Z,44.56
2023-04-28T10:43:04.420Z,44.49
2023-04-28T10:45:56.439Z,44.53
2023-04-28T10:48:34.283Z,44.98
2023-04-28T10:51:05.002Z,44.43
2023-04-28T10:53:51.466Z,44.39
2023-04-28T10:56:26.700Z,45.15
2023-04-28T10:58:57.942Z,45.56
2023-04-28T11:01:29.868Z,45.41
2023-04-28T11:04:05.067Z,44.84
2023-04-28T11:06:34.886Z,44.45
2023-04-28T11:09:03.553Z,44.50
2023-04-28T11:11:39.274Z,44.89
2023-04-28T11:14:18.719Z,45.17
2023-04-28T11:17:00.228Z,45.28
2023-04-28T11:19:31.726Z,45.16
2023-04-28T11:22:00.191Z,45.45
2023-04-28T11:24:29.216Z,45.28
2023-04-28T11:26:57.000Z,45.33
2023-04-28T11:29:34.076Z,46.62
2023-04-28T11:32:01.358Z,46.33
2023-04-28T11:34:28.480Z,46.88
2023-04-28T11:36:55.693Z,47.50
2023-04-28T11:39:33.450Z,46.42
2023-04-28T11:42:02.620Z,45.89
2023-04-28T11:44:30.895Z,45.43
2023-04-28T11:47:03.373Z,45.48
2023-04-28T11:49:46.742Z,45.35
2023-04-28T11:52:14.362Z,46.30
2023-04-28T11:54:44.227Z,46.36
2023-04-28T11:57:18.591Z,46.33
2023-04-28T11:59:46.636Z,46.03
2023-04-28T12:02:14.211Z,46.43
2023-04-28T12:04:42.512Z,46.11
2023-04-28T12:07:13.033Z,46.65
2023-04-28T12:09:45.169Z,47.01
2023-04-28T12:12:13.273Z,46.68
2023-04-28T12:15:05.307Z,45.60
2023-04-28T12:17:39.616Z,45.36
2023-04-28T12:20:11.978Z,46.23
2023-04-28T12:22:47.774Z,46.13
2023-04-28T12:25:16.855Z,45.70
2023-04-28T12:28:00.275Z,45.46
2023-04-28T12:30:28.028Z,45.20
2023-04-28T12:32:56.444Z,44.72
2023-04-28T12:35:27.553Z,44.82
2023-04-28T12:37:56.276Z,44.95
2023-04-28T12:40:24.688Z,45.04
2023-04-28T12:42:51.976Z,45.12
2023-04-28T12:45:19.330Z,45.08
2023-04-28T12:47:46.477Z,44.47
2023-04-28T12:50:13.643Z,44.08
2023-04-28T12:52:40.980Z,43.88
2023-04-28T12:55:08.879Z,44.03
2023-04-28T12:57:38.961Z,43.82
2023-04-28T13:00:08.590Z,43.94
2023-04-28T13:02:36.178Z,43.93
2023-04-28T13:05:03.701Z,43.94
2023-04-28T13:07:31.261Z,43.67
2023-04-28T13:09:58.620Z,43.61
2023-04-28T13:12:25.898Z,43.62
2023-04-28T13:14:53.001Z,43.49
2023-04-28T13:17:20.063Z,43.75
2023-04-28T13:19:47.742Z,43.91
2023-04-28T13:22:15.931Z,43.72
2023-04-28T13:24:43.246Z,43.88
2023-04-28T13:27:10.635Z,43.90
2023-04-28T13:29:38.061Z,44.45
2023-04-28T13:32:06.064Z,44.33
2023-04-28T13:34:33.342Z,44.47
2023-04-28T13:37:00.322Z,43.43
2023-04-28T13:39:27.292Z,43.30
2023-04-28T13:41:54.359Z,43.56
2023-04-28T13:44:21.678Z,43.62
2023-04-28T13:46:48.673Z,43.92
2023-04-28T13:49:15.900Z,43.84
2023-04-28T13:51:42.957Z,43.68
2023-04-28T13:54:11.644Z,43.92
2023-04-28T13:56:38.856Z,44.17
2023-04-28T13:59:05.859Z,43.64
2023-04-28T14:01:32.882Z,43.76
2023-04-28T14:04:00.034Z,44.09
2023-04-28T14:06:27.518Z,43.97
2023-04-28T14:08:54.606Z,44.36
2023-04-28T14:11:21.716Z,44.79
2023-04-28T14:13:48.661Z,44.74
2023-04-28T14:16:15.869Z,44.16
2023-04-28T14:18:43.252Z,44.19
2023-04-28T14:21:10.447Z,44.60
2023-04-28T14:23:38.574Z,44.43
2023-04-28T14:26:05.782Z,44.27
2023-04-28T14:28:32.753Z,44.15
2023-04-28T14:31:04.490Z,44.44
2023-04-28T14:33:31.596Z,44.49
2023-04-28T14:35:58.564Z,44.70
2023-04-28T14:38:25.672Z,44.49
2023-04-28T14:40:52.877Z,44.56
2023-04-28T14:43:19.919Z,45.04
2023-04-28T14:45:47.035Z,44.72
2023-04-28T14:48:15.554Z,44.47
2023-04-28T14:50:46.291Z,44.35
2023-04-28T14:53:13.292Z,44.35
2023-04-28T14:55:40.367Z,44.50
2023-04-28T14:58:07.631Z,44.06
2023-04-28T15:00:35.339Z,44.17
2023-04-28T15:03:02.562Z,44.05
2023-04-28T15:05:29.630Z,44.16
2023-04-28T15:07:56.930Z,44.32
2023-04-28T15:10:23.993Z,44.36
2023-04-28T15:12:51.042Z,44.27
2023-04-28T15:15:18.069Z,44.31
2023-04-28T15:17:45.548Z,43.89
2023-04-28T15:20:12.800Z,43.98
2023-04-28T15:22:39.926Z,44.04
2023-04-28T15:25:07.555Z,44.05
2023-04-28T15:27:34.549Z,44.00
2023-04-28T15:30:01.649Z,44.09
2023-04-28T15:32:30.428Z,44.24
2023-04-28T15:34:57.839Z,44.29
2023-04-28T15:37:48.129Z,43.88
2023-04-28T15:40:16.736Z,43.47
2023-04-28T15:42:48.983Z,43.33
2023-04-28T15:45:16.548Z,43.32
2023-04-28T15:47:43.788Z,43.20
2023-04-28T15:50:11.019Z,43.62
2023-04-28T15:52:45.986Z,43.59
2023-04-28T15:55:14.244Z,43.13
2023-04-28T15:57:41.912Z,42.86
2023-04-28T16:00:10.059Z,42.79
2023-04-28T16:02:40.034Z,43.09
2023-04-28T16:05:07.431Z,43.04
2023-04-28T16:07:43.868Z,42.97
2023-04-28T16:10:14.685Z,42.75
2023-04-28T16:12:42.101Z,43.00
2023-04-28T16:15:10.934Z,43.33
2023-04-28T16:17:38.778Z,43.68
2023-04-28T16:20:07.317Z,44.11
2023-04-28T16:22:36.259Z,44.14
2023-04-28T16:25:06.816Z,44.18
2023-04-28T16:27:34.132Z,44.48
2023-04-28T16:30:01.140Z,44.62
2023-04-28T16:32:28.952Z,44.55
2023-04-28T16:34:58.724Z,44.51
2023-04-28T16:37:26.072Z,44.32
2023-04-28T16:39:53.161Z,44.40
2023-04-28T16:42:23.249Z,44.60
2023-04-28T16:44:52.636Z,44.74
2023-04-28T16:47:20.172Z,44.39
2023-04-28T16:49:47.545Z,44.34
2023-04-28T16:52:14.579Z,44.26
2023-04-28T16:54:41.801Z,44.17
2023-04-28T16:57:09.151Z,44.06
2023-04-28T16:59:36.408Z,44.13
2023-04-28T17:02:06.982Z,44.17
2023-04-28T17:04:34.658Z,44.08
2023-04-28T17:07:04.720Z,44.21
2023-04-28T17:09:33.358Z,44.28
2023-04-28T17:12:01.063Z,44.29
2023-04-28T17:14:28.139Z,44.29
2023-04-28T17:16:56.018Z,44.37
2023-04-28T17:19:23.291Z,44.34
2023-04-28T17:21:52.794Z,44.43
2023-04-28T17:24:19.918Z,44.43
2023-04-28T17:26:47.208Z,44.35
2023-04-28T17:29:14.316Z,44.35
2023-04-28T17:31:41.771Z,44.30
2023-04-28T17:34:08.798Z,44.45
2023-04-28T17:36:35.882Z,44.44
2023-04-28T17:39:04.651Z,44.73
2023-04-28T17:41:31.915Z,44.83
2023-04-28T17:43:59.094Z,44.71
2023-04-28T17:46:26.415Z,44.57
2023-04-28T17:48:53.475Z,44.47
2023-04-28T17:51:20.798Z,44.44
2023-04-28T17:53:48.917Z,44.40
2023-04-28T17:56:16.437Z,44.34
2023-04-28T17:58:43.586Z,44.28
2023-04-28T18:01:10.710Z,44.20
2023-04-28T18:03:38.827Z,44.29
2023-04-28T18:06:07.925Z,44.33
2023-04-28T18:08:35.696Z,44.32
2023-04-28T18:11:03.638Z,44.46
2023-04-28T18:13:30.668Z,44.34
2023-04-28T18:15:57.710Z,44.51
2023-04-28T18:18:25.125Z,44.61
2023-04-28T18:20:57.397Z,44.50
2023-04-28T18:23:24.289Z,44.44
2023-04-28T18:25:51.292Z,44.49
2023-04-28T18:28:18.234Z,44.62
2023-04-28T18:30:45.124Z,45.22
2023-04-28T18:33:12.248Z,45.98
2023-04-28T18:35:39.328Z,46.45
2023-04-28T18:38:06.547Z,46.26
2023-04-28T18:40:39.876Z,45.99
2023-04-28T18:43:07.358Z,45.90
2023-04-28T18:45:41.190Z,45.95
2023-04-28T18:48:09.378Z,45.87
2023-04-28T18:50:36.484Z,45.88
2023-04-28T18:53:04.410Z,45.77
2023-04-28T18:55:34.545Z,46.00
2023-04-28T18:58:04.726Z,46.21
2023-04-28T19:00:32.844Z,45.93
2023-04-28T19:03:00.539Z,45.66
2023-04-28T19:05:27.761Z,45.70
2023-04-28T19:07:54.713Z,45.50
2023-04-28T19:10:21.769Z,45.48
2023-04-28T19:12:48.719Z,45.40
2023-04-28T19:15:16.217Z,45.16
2023-04-28T19:17:43.221Z,44.71
2023-04-28T19:20:10.412Z,44.28
2023-04-28T19:22:38.753Z,44.38
2023-04-28T19:25:06.965Z,44.41
2023-04-28T19:27:35.433Z,44.44
2023-04-28T19:30:03.414Z,44.37
2023-04-28T19:32:30.545Z,44.46
2023-04-28T19:35:00.694Z,44.33
2023-04-28T19:37:28.062Z,44.31
2023-04-28T19:39:55.301Z,44.20
2023-04-28T19:42:22.357Z,44.25
2023-04-28T19:44:53.890Z,44.32
2023-04-28T19:47:26.010Z,44.59
2023-04-28T19:49:53.330Z,44.98
2023-04-28T19:52:23.685Z,45.05
2023-04-28T19:54:50.982Z,45.11
2023-04-28T19:57:20.609Z,44.95
2023-04-28T19:59:48.107Z,44.93
2023-04-28T20:02:16.183Z,44.92
2023-04-28T20:04:43.436Z,44.92
2023-04-28T20:07:10.918Z,44.74
2023-04-28T20:09:38.217Z,44.69
2023-04-28T20:12:06.060Z,44.63
2023-04-28T20:14:33.262Z,44.64
2023-04-28T20:17:01.799Z,44.68
2023-04-28T20:19:28.759Z,44.91
2023-04-28T20:21:56.202Z,44.79
2023-04-28T20:24:23.531Z,44.88
2023-04-28T20:26:51.468Z,44.88
2023-04-28T20:29:18.412Z,44.56
2023-04-28T20:31:45.575Z,44.23
2023-04-28T20:34:13.695Z,44.46
2023-04-28T20:36:42.654Z,44.25
2023-04-28T20:39:11.275Z,44.44
2023-04-28T20:41:41.119Z,44.60
2023-04-28T20:44:08.692Z,44.84
2023-04-28T20:46:35.807Z,44.66
2023-04-28T20:49:03.412Z,44.82
2023-04-28T20:51:34.180Z,45.02
2023-04-28T20:54:01.593Z,44.81
2023-04-28T20:56:28.758Z,44.59
2023-04-28T20:58:55.985Z,44.55
2023-04-28T21:01:23.150Z,44.71
2023-04-28T21:03:50.472Z,44.76
2023-04-28T21:06:17.687Z,44.95
2023-04-28T21:08:45.303Z,45.36
2023-04-28T21:11:13.214Z,45.35
2023-04-28T21:13:40.467Z,45.37
2023-04-28T21:16:12.535Z,45.25
2023-04-28T21:18:39.609Z,45.05
2023-04-28T21:21:06.771Z,44.97
2023-04-28T21:23:33.765Z,45.20
2023-04-28T21:26:00.732Z,44.73
2023-04-28T21:28:28.261Z,45.26
2023-04-28T21:30:55.201Z,45.08
2023-04-28T21:33:22.415Z,45.16
2023-04-28T21:35:49.355Z,45.37
2023-04-28T21:38:16.298Z,45.40
2023-04-28T21:40:43.243Z,45.15
2023-04-28T21:43:10.677Z,45.03
2023-04-28T21:45:37.738Z,44.98
2023-04-28T21:48:06.494Z,45.19
2023-04-28T21:50:34.753Z,45.15
2023-04-28T21:53:01.782Z,45.24
2023-04-28T21:55:28.986Z,45.24
2023-04-28T21:57:58.728Z,45.17
2023-04-28T22:00:28.065Z,45.35
2023-04-28T22:02:56.639Z,45.25
2023-04-28T22:05:24.786Z,45.56
2023-04-28T22:07:51.977Z,45.37
2023-04-28T22:10:19.471Z,45.62
2023-04-28T22:12:46.849Z,45.85
2023-04-28T22:15:13.876Z,45.72
2023-04-28T22:17:40.991Z,45.72
2023-04-28T22:20:08.589Z,45.73
2023-04-28T22:22:35.713Z,46.00
2023-04-28T22:25:02.691Z,46.22
2023-04-28T22:27:30.715Z,46.03
2023-04-28T22:29:58.893Z,45.97
2023-04-28T22:32:26.605Z,46.34
2023-04-28T22:34:53.869Z,46.03
2023-04-28T22:37:20.888Z,46.51
2023-04-28T22:39:48.143Z,46.56
2023-04-28T22:42:15.209Z,46.42
2023-04-28T22:44:42.216Z,46.08
2023-04-28T22:47:09.279Z,46.33
2023-04-28T22:49:36.258Z,46.28
2023-04-28T22:52:04.109Z,46.02
2023-04-28T22:54:32.033Z,46.27
2023-04-28T22:56:59.425Z,46.20
2023-04-28T22:59:26.816Z,46.42
2023-04-28T23:01:54.934Z,46.62
2023-04-28T23:04:22.737Z,46.42
2023-04-28T23:06:49.806Z,46.86
2023-04-28T23:09:16.833Z,47.18
2023-04-28T23:11:44.038Z,46.88
2023-04-28T23:14:11.045Z,47.16
2023-04-28T23:16:38.960Z,47.46
2023-04-28T23:19:06.317Z,47.64
2023-04-28T23:21:33.270Z,47.57
2023-04-28T23:24:00.254Z,47.80
2023-04-28T23:26:27.295Z,47.83
2023-04-28T23:28:54.272Z,47.86
2023-04-28T23:31:21.636Z,48.04
2023-04-28T23:33:48.700Z,47.95
2023-04-28T23:36:15.974Z,47.89
2023-04-28T23:38:43.079Z,47.93
2023-04-28T23:41:10.051Z,48.16
2023-04-28T23:43:37.037Z,48.27
2023-04-28T23:46:04.783Z,48.28
2023-04-28T23:48:31.772Z,48.32
2023-04-28T23:50:58.895Z,48.32
2023-04-28T23:53:25.901Z,48.03
2023-04-28T23:55:52.936Z,48.46
2023-04-28T23:58:20.082Z,48.76
